sensor_id;sensor_type;location;lat;lon;timestamp;temperature;humidity
21582;DHT22;10952;50.836;4.348;2023-11-21T00:00:19;11.50;99.90
21582;DHT22;10952;50.836;4.348;2023-11-21T00:02:45;11.50;99.90
21582;DHT22;10952;50.836;4.348;2023-11-21T00:05:12;11.50;99.90
21582;DHT22;10952;50.836;4.348;2023-11-21T00:07:40;11.40;99.90
21582;DHT22;10952;50.836;4.348;2023-11-21T00:10:06;11.40;99.90
21582;DHT22;10952;50.836;4.348;2023-11-21T00:12:34;11.40;99.90
21582;DHT22;10952;50.836;4.348;2023-11-21T00:14:59;11.40;99.90
21582;DHT22;10952;50.836;4.348;2023-11-21T00:17:25;11.40;99.90
21582;DHT22;10952;50.836;4.348;2023-11-21T00:19:51;11.30;99.90
21582;DHT22;10952;50.836;4.348;2023-11-21T00:22:19;11.20;99.90
21582;DHT22;10952;50.836;4.348;2023-11-21T00:24:46;11.30;99.90
21582;DHT22;10952;50.836;4.348;2023-11-21T00:27:11;11.20;99.90
21582;DHT22;10952;50.836;4.348;2023-11-21T00:29:37;11.20;99.90
21582;DHT22;10952;50.836;4.348;2023-11-21T00:32:05;11.20;99.90
21582;DHT22;10952;50.836;4.348;2023-11-21T00:34:31;11.20;99.90
21582;DHT22;10952;50.836;4.348;2023-11-21T00:36:57;11.20;99.90
21582;DHT22;10952;50.836;4.348;2023-11-21T00:39:22;11.20;99.90
21582;DHT22;10952;50.836;4.348;2023-11-21T00:41:48;11.20;99.90
21582;DHT22;10952;50.836;4.348;2023-11-21T00:44:14;11.20;99.90
21582;DHT22;10952;50.836;4.348;2023-11-21T00:46:39;11.20;99.90
21582;DHT22;10952;50.836;4.348;2023-11-21T00:49:05;11.20;99.90
21582;DHT22;10952;50.836;4.348;2023-11-21T00:51:30;11.20;99.90
21582;DHT22;10952;50.836;4.348;2023-11-21T00:53:56;11.20;99.90
21582;DHT22;10952;50.836;4.348;2023-11-21T00:56:22;11.20;99.90
21582;DHT22;10952;50.836;4.348;2023-11-21T00:58:48;11.30;99.90
21582;DHT22;10952;50.836;4.348;2023-11-21T01:01:21;11.20;99.90
21582;DHT22;10952;50.836;4.348;2023-11-21T01:03:50;11.40;99.90
21582;DHT22;10952;50.836;4.348;2023-11-21T01:06:16;11.30;99.90
21582;DHT22;10952;50.836;4.348;2023-11-21T01:08:42;11.20;99.90
21582;DHT22;10952;50.836;4.348;2023-11-21T01:11:08;11.20;99.90
21582;DHT22;10952;50.836;4.348;2023-11-21T01:13:35;11.20;99.90
21582;DHT22;10952;50.836;4.348;2023-11-21T01:16:01;11.20;99.90
21582;DHT22;10952;50.836;4.348;2023-11-21T01:18:27;11.10;99.90
21582;DHT22;10952;50.836;4.348;2023-11-21T01:20:54;11.30;99.90
21582;DHT22;10952;50.836;4.348;2023-11-21T01:23:20;11.30;99.90
21582;DHT22;10952;50.836;4.348;2023-11-21T01:25:45;11.30;99.90
21582;DHT22;10952;50.836;4.348;2023-11-21T01:28:11;11.40;99.90
21582;DHT22;10952;50.836;4.348;2023-11-21T01:30:37;11.40;99.90
21582;DHT22;10952;50.836;4.348;2023-11-21T01:33:03;11.30;99.90
21582;DHT22;10952;50.836;4.348;2023-11-21T01:35:29;11.30;99.90
21582;DHT22;10952;50.836;4.348;2023-11-21T01:37:54;11.40;99.90
21582;DHT22;10952;50.836;4.348;2023-11-21T01:40:20;11.40;99.90
21582;DHT22;10952;50.836;4.348;2023-11-21T01:42:46;11.30;99.90
21582;DHT22;10952;50.836;4.348;2023-11-21T01:45:13;11.30;99.90
21582;DHT22;10952;50.836;4.348;2023-11-21T01:47:39;11.20;99.90
21582;DHT22;10952;50.836;4.348;2023-11-21T01:50:07;11.30;99.90
21582;DHT22;10952;50.836;4.348;2023-11-21T01:52:35;11.40;99.90
21582;DHT22;10952;50.836;4.348;2023-11-21T01:55:01;11.40;99.90
21582;DHT22;10952;50.836;4.348;2023-11-21T01:57:28;11.40;99.90
21582;DHT22;10952;50.836;4.348;2023-11-21T01:59:54;11.40;99.90
21582;DHT22;10952;50.836;4.348;2023-11-21T02:02:20;11.30;99.90
21582;DHT22;10952;50.836;4.348;2023-11-21T02:04:46;11.30;99.90
21582;DHT22;10952;50.836;4.348;2023-11-21T02:07:11;11.30;99.90
21582;DHT22;10952;50.836;4.348;2023-11-21T02:09:37;11.30;99.90
21582;DHT22;10952;50.836;4.348;2023-11-21T02:12:08;11.30;99.90
21582;DHT22;10952;50.836;4.348;2023-11-21T02:14:36;11.10;99.90
21582;DHT22;10952;50.836;4.348;2023-11-21T02:17:02;11.10;99.90
21582;DHT22;10952;50.836;4.348;2023-11-21T02:19:29;11.10;99.90
21582;DHT22;10952;50.836;4.348;2023-11-21T02:21:57;11.00;99.90
21582;DHT22;10952;50.836;4.348;2023-11-21T02:24:32;11.10;99.90
21582;DHT22;10952;50.836;4.348;2023-11-21T02:26:58;11.20;99.90
21582;DHT22;10952;50.836;4.348;2023-11-21T02:29:23;11.20;99.90
21582;DHT22;10952;50.836;4.348;2023-11-21T02:31:53;11.10;99.90
21582;DHT22;10952;50.836;4.348;2023-11-21T02:34:20;10.90;99.90
21582;DHT22;10952;50.836;4.348;2023-11-21T02:36:46;10.90;99.90
21582;DHT22;10952;50.836;4.348;2023-11-21T02:39:15;10.90;99.90
21582;DHT22;10952;50.836;4.348;2023-11-21T02:41:40;10.90;99.90
21582;DHT22;10952;50.836;4.348;2023-11-21T02:44:06;11.00;99.90
21582;DHT22;10952;50.836;4.348;2023-11-21T02:46:36;10.90;99.90
21582;DHT22;10952;50.836;4.348;2023-11-21T02:49:03;11.00;99.90
21582;DHT22;10952;50.836;4.348;2023-11-21T02:51:32;11.00;99.90
21582;DHT22;10952;50.836;4.348;2023-11-21T02:53:58;11.00;99.90
21582;DHT22;10952;50.836;4.348;2023-11-21T02:56:27;11.00;99.90
21582;DHT22;10952;50.836;4.348;2023-11-21T02:58:55;11.00;99.90
21582;DHT22;10952;50.836;4.348;2023-11-21T03:01:22;11.10;99.90
21582;DHT22;10952;50.836;4.348;2023-11-21T03:03:49;11.00;99.90
21582;DHT22;10952;50.836;4.348;2023-11-21T03:06:17;11.10;99.90
21582;DHT22;10952;50.836;4.348;2023-11-21T03:08:43;11.10;99.90
21582;DHT22;10952;50.836;4.348;2023-11-21T03:11:08;11.00;99.90
21582;DHT22;10952;50.836;4.348;2023-11-21T03:13:34;11.00;99.90
21582;DHT22;10952;50.836;4.348;2023-11-21T03:16:00;11.00;99.90
21582;DHT22;10952;50.836;4.348;2023-11-21T03:18:25;11.00;99.90
21582;DHT22;10952;50.836;4.348;2023-11-21T03:20:53;11.10;99.90
21582;DHT22;10952;50.836;4.348;2023-11-21T03:23:19;11.20;99.90
21582;DHT22;10952;50.836;4.348;2023-11-21T03:25:45;11.20;99.90
21582;DHT22;10952;50.836;4.348;2023-11-21T03:28:10;11.20;99.90
21582;DHT22;10952;50.836;4.348;2023-11-21T03:30:36;11.20;99.90
21582;DHT22;10952;50.836;4.348;2023-11-21T03:33:01;11.10;99.90
21582;DHT22;10952;50.836;4.348;2023-11-21T03:35:27;11.20;99.90
21582;DHT22;10952;50.836;4.348;2023-11-21T03:37:53;11.20;99.90
21582;DHT22;10952;50.836;4.348;2023-11-21T03:40:19;11.20;99.90
21582;DHT22;10952;50.836;4.348;2023-11-21T03:42:46;11.20;99.90
21582;DHT22;10952;50.836;4.348;2023-11-21T03:45:12;11.30;99.90
21582;DHT22;10952;50.836;4.348;2023-11-21T03:47:42;11.30;99.90
21582;DHT22;10952;50.836;4.348;2023-11-21T03:50:08;11.30;99.90
21582;DHT22;10952;50.836;4.348;2023-11-21T03:52:34;11.30;99.90
21582;DHT22;10952;50.836;4.348;2023-11-21T03:55:01;11.30;99.90
21582;DHT22;10952;50.836;4.348;2023-11-21T03:57:26;11.30;99.90
21582;DHT22;10952;50.836;4.348;2023-11-21T03:59:53;11.30;99.90
21582;DHT22;10952;50.836;4.348;2023-11-21T04:02:19;11.40;99.90
21582;DHT22;10952;50.836;4.348;2023-11-21T04:04:45;11.40;99.90
21582;DHT22;10952;50.836;4.348;2023-11-21T04:07:10;11.30;99.90
21582;DHT22;10952;50.836;4.348;2023-11-21T04:09:36;11.30;99.90
21582;DHT22;10952;50.836;4.348;2023-11-21T04:12:02;11.40;99.90
21582;DHT22;10952;50.836;4.348;2023-11-21T04:14:28;11.20;99.90
21582;DHT22;10952;50.836;4.348;2023-11-21T04:16:54;11.10;99.90
21582;DHT22;10952;50.836;4.348;2023-11-21T04:19:19;11.20;99.90
21582;DHT22;10952;50.836;4.348;2023-11-21T04:21:45;11.20;99.90
21582;DHT22;10952;50.836;4.348;2023-11-21T04:24:11;11.30;99.90
21582;DHT22;10952;50.836;4.348;2023-11-21T04:26:37;11.20;99.90
21582;DHT22;10952;50.836;4.348;2023-11-21T04:29:03;11.20;99.90
21582;DHT22;10952;50.836;4.348;2023-11-21T04:31:30;11.20;99.90
21582;DHT22;10952;50.836;4.348;2023-11-21T04:33:55;11.20;99.90
21582;DHT22;10952;50.836;4.348;2023-11-21T04:36:21;11.20;99.90
21582;DHT22;10952;50.836;4.348;2023-11-21T04:38:46;11.30;99.90
21582;DHT22;10952;50.836;4.348;2023-11-21T04:41:12;11.20;99.90
21582;DHT22;10952;50.836;4.348;2023-11-21T04:43:38;11.20;99.90
21582;DHT22;10952;50.836;4.348;2023-11-21T04:46:03;11.30;99.90
21582;DHT22;10952;50.836;4.348;2023-11-21T04:48:29;11.30;99.90
21582;DHT22;10952;50.836;4.348;2023-11-21T04:50:55;11.40;99.90
21582;DHT22;10952;50.836;4.348;2023-11-21T04:53:20;11.50;99.90
21582;DHT22;10952;50.836;4.348;2023-11-21T04:55:46;11.40;99.90
21582;DHT22;10952;50.836;4.348;2023-11-21T04:58:12;11.50;99.90
21582;DHT22;10952;50.836;4.348;2023-11-21T05:00:38;11.50;99.90
21582;DHT22;10952;50.836;4.348;2023-11-21T05:03:04;11.50;99.90
21582;DHT22;10952;50.836;4.348;2023-11-21T05:05:30;11.50;99.90
21582;DHT22;10952;50.836;4.348;2023-11-21T05:07:56;11.50;99.90
21582;DHT22;10952;50.836;4.348;2023-11-21T05:10:22;11.50;99.90
21582;DHT22;10952;50.836;4.348;2023-11-21T05:12:48;11.50;99.90
21582;DHT22;10952;50.836;4.348;2023-11-21T05:15:16;11.50;99.90
21582;DHT22;10952;50.836;4.348;2023-11-21T05:17:43;11.40;99.90
21582;DHT22;10952;50.836;4.348;2023-11-21T05:20:10;11.30;99.90
21582;DHT22;10952;50.836;4.348;2023-11-21T05:22:37;11.20;99.90
21582;DHT22;10952;50.836;4.348;2023-11-21T05:25:03;11.30;99.90
21582;DHT22;10952;50.836;4.348;2023-11-21T05:27:29;11.30;99.90
21582;DHT22;10952;50.836;4.348;2023-11-21T05:29:56;11.40;99.90
21582;DHT22;10952;50.836;4.348;2023-11-21T05:32:24;11.40;99.90
21582;DHT22;10952;50.836;4.348;2023-11-21T05:34:49;11.30;99.90
21582;DHT22;10952;50.836;4.348;2023-11-21T05:37:15;11.30;99.90
21582;DHT22;10952;50.836;4.348;2023-11-21T05:39:40;11.40;99.90
21582;DHT22;10952;50.836;4.348;2023-11-21T05:42:06;11.40;99.90
21582;DHT22;10952;50.836;4.348;2023-11-21T05:44:32;11.60;99.90
21582;DHT22;10952;50.836;4.348;2023-11-21T05:46:57;11.60;99.90
21582;DHT22;10952;50.836;4.348;2023-11-21T05:49:24;11.60;99.90
21582;DHT22;10952;50.836;4.348;2023-11-21T05:51:55;11.50;99.90
21582;DHT22;10952;50.836;4.348;2023-11-21T05:54:21;11.40;99.90
21582;DHT22;10952;50.836;4.348;2023-11-21T05:56:48;11.40;99.90
21582;DHT22;10952;50.836;4.348;2023-11-21T05:59:14;11.40;99.90
21582;DHT22;10952;50.836;4.348;2023-11-21T06:01:40;11.40;99.90
21582;DHT22;10952;50.836;4.348;2023-11-21T06:04:06;11.40;99.90
21582;DHT22;10952;50.836;4.348;2023-11-21T06:06:33;11.50;99.90
21582;DHT22;10952;50.836;4.348;2023-11-21T06:08:59;11.50;99.90
21582;DHT22;10952;50.836;4.348;2023-11-21T06:11:25;11.50;99.90
21582;DHT22;10952;50.836;4.348;2023-11-21T06:13:51;11.50;99.90
21582;DHT22;10952;50.836;4.348;2023-11-21T06:16:18;11.60;99.90
21582;DHT22;10952;50.836;4.348;2023-11-21T06:18:46;11.50;99.90
21582;DHT22;10952;50.836;4.348;2023-11-21T06:21:12;11.60;99.90
21582;DHT22;10952;50.836;4.348;2023-11-21T06:23:37;11.70;99.90
21582;DHT22;10952;50.836;4.348;2023-11-21T06:26:03;11.60;99.90
21582;DHT22;10952;50.836;4.348;2023-11-21T06:28:30;11.60;99.90
21582;DHT22;10952;50.836;4.348;2023-11-21T06:30:56;11.70;99.90
21582;DHT22;10952;50.836;4.348;2023-11-21T06:33:23;11.70;99.90
21582;DHT22;10952;50.836;4.348;2023-11-21T06:35:49;11.70;99.90
21582;DHT22;10952;50.836;4.348;2023-11-21T06:38:15;11.70;99.90
21582;DHT22;10952;50.836;4.348;2023-11-21T06:40:40;11.70;99.90
21582;DHT22;10952;50.836;4.348;2023-11-21T06:43:06;11.60;99.90
21582;DHT22;10952;50.836;4.348;2023-11-21T06:45:33;11.60;99.90
21582;DHT22;10952;50.836;4.348;2023-11-21T06:48:00;11.60;99.90
21582;DHT22;10952;50.836;4.348;2023-11-21T06:50:25;11.50;99.90
21582;DHT22;10952;50.836;4.348;2023-11-21T06:52:51;11.40;99.90
21582;DHT22;10952;50.836;4.348;2023-11-21T06:55:17;11.40;99.90
21582;DHT22;10952;50.836;4.348;2023-11-21T06:57:43;11.50;99.90
21582;DHT22;10952;50.836;4.348;2023-11-21T07:00:09;11.50;99.90
21582;DHT22;10952;50.836;4.348;2023-11-21T07:02:35;11.40;99.90
21582;DHT22;10952;50.836;4.348;2023-11-21T07:05:00;11.50;99.90
21582;DHT22;10952;50.836;4.348;2023-11-21T07:07:27;11.60;99.90
21582;DHT22;10952;50.836;4.348;2023-11-21T07:09:53;11.60;99.90
21582;DHT22;10952;50.836;4.348;2023-11-21T07:12:19;11.60;99.90
21582;DHT22;10952;50.836;4.348;2023-11-21T07:14:44;11.60;99.90
21582;DHT22;10952;50.836;4.348;2023-11-21T07:17:11;11.70;99.90
21582;DHT22;10952;50.836;4.348;2023-11-21T07:19:38;11.70;99.90
21582;DHT22;10952;50.836;4.348;2023-11-21T07:22:04;11.70;99.90
21582;DHT22;10952;50.836;4.348;2023-11-21T07:24:31;11.70;99.90
21582;DHT22;10952;50.836;4.348;2023-11-21T07:26:57;11.60;99.90
21582;DHT22;10952;50.836;4.348;2023-11-21T07:29:24;11.70;99.90
21582;DHT22;10952;50.836;4.348;2023-11-21T07:31:54;11.80;99.90
21582;DHT22;10952;50.836;4.348;2023-11-21T07:34:21;11.80;99.90
21582;DHT22;10952;50.836;4.348;2023-11-21T07:36:47;11.80;99.90
21582;DHT22;10952;50.836;4.348;2023-11-21T07:39:13;11.70;99.90
21582;DHT22;10952;50.836;4.348;2023-11-21T07:41:41;11.50;99.90
21582;DHT22;10952;50.836;4.348;2023-11-21T07:44:14;11.40;99.90
21582;DHT22;10952;50.836;4.348;2023-11-21T07:46:40;11.50;99.90
21582;DHT22;10952;50.836;4.348;2023-11-21T07:49:06;11.50;99.90
21582;DHT22;10952;50.836;4.348;2023-11-21T07:51:31;11.60;99.90
21582;DHT22;10952;50.836;4.348;2023-11-21T07:53:57;11.70;99.90
21582;DHT22;10952;50.836;4.348;2023-11-21T07:56:22;11.70;99.90
21582;DHT22;10952;50.836;4.348;2023-11-21T07:58:48;11.80;99.90
21582;DHT22;10952;50.836;4.348;2023-11-21T08:01:15;11.80;99.90
21582;DHT22;10952;50.836;4.348;2023-11-21T08:03:41;11.60;99.90
21582;DHT22;10952;50.836;4.348;2023-11-21T08:06:07;11.70;99.90
21582;DHT22;10952;50.836;4.348;2023-11-21T08:08:34;11.70;99.90
21582;DHT22;10952;50.836;4.348;2023-11-21T08:10:59;11.70;99.90
21582;DHT22;10952;50.836;4.348;2023-11-21T08:13:28;11.70;99.90
21582;DHT22;10952;50.836;4.348;2023-11-21T08:15:55;11.60;99.90
21582;DHT22;10952;50.836;4.348;2023-11-21T08:18:22;11.70;99.90
21582;DHT22;10952;50.836;4.348;2023-11-21T08:20:48;11.80;99.90
21582;DHT22;10952;50.836;4.348;2023-11-21T08:23:16;11.80;99.90
21582;DHT22;10952;50.836;4.348;2023-11-21T08:25:45;11.70;99.90
21582;DHT22;10952;50.836;4.348;2023-11-21T08:28:12;11.80;99.90
21582;DHT22;10952;50.836;4.348;2023-11-21T08:30:40;11.90;99.90
21582;DHT22;10952;50.836;4.348;2023-11-21T08:33:07;11.90;99.90
21582;DHT22;10952;50.836;4.348;2023-11-21T08:35:34;11.90;99.90
21582;DHT22;10952;50.836;4.348;2023-11-21T08:38:01;11.80;99.90
21582;DHT22;10952;50.836;4.348;2023-11-21T08:40:26;11.80;99.90
21582;DHT22;10952;50.836;4.348;2023-11-21T08:42:52;11.70;99.90
21582;DHT22;10952;50.836;4.348;2023-11-21T08:45:19;11.80;99.90
21582;DHT22;10952;50.836;4.348;2023-11-21T08:47:45;11.70;99.90
21582;DHT22;10952;50.836;4.348;2023-11-21T08:50:11;11.70;99.90
21582;DHT22;10952;50.836;4.348;2023-11-21T08:52:40;11.70;99.90
21582;DHT22;10952;50.836;4.348;2023-11-21T08:55:10;11.80;99.90
21582;DHT22;10952;50.836;4.348;2023-11-21T08:57:42;11.80;99.90
21582;DHT22;10952;50.836;4.348;2023-11-21T09:00:09;11.90;99.90
21582;DHT22;10952;50.836;4.348;2023-11-21T09:02:38;12.00;99.90
21582;DHT22;10952;50.836;4.348;2023-11-21T09:05:07;12.10;99.90
21582;DHT22;10952;50.836;4.348;2023-11-21T09:07:34;12.10;99.90
21582;DHT22;10952;50.836;4.348;2023-11-21T09:10:01;12.20;99.90
21582;DHT22;10952;50.836;4.348;2023-11-21T09:12:27;12.20;99.90
21582;DHT22;10952;50.836;4.348;2023-11-21T09:14:53;12.00;99.90
21582;DHT22;10952;50.836;4.348;2023-11-21T09:17:19;12.10;99.90
21582;DHT22;10952;50.836;4.348;2023-11-21T09:19:45;12.20;99.90
21582;DHT22;10952;50.836;4.348;2023-11-21T09:22:15;12.20;99.90
21582;DHT22;10952;50.836;4.348;2023-11-21T09:24:41;12.30;99.90
21582;DHT22;10952;50.836;4.348;2023-11-21T09:27:09;12.20;99.90
21582;DHT22;10952;50.836;4.348;2023-11-21T09:29:35;12.30;99.90
21582;DHT22;10952;50.836;4.348;2023-11-21T09:32:01;12.20;99.90
21582;DHT22;10952;50.836;4.348;2023-11-21T09:34:27;12.30;99.90
21582;DHT22;10952;50.836;4.348;2023-11-21T09:36:52;12.10;99.90
21582;DHT22;10952;50.836;4.348;2023-11-21T09:39:19;12.10;99.90
21582;DHT22;10952;50.836;4.348;2023-11-21T09:41:52;12.20;99.90
21582;DHT22;10952;50.836;4.348;2023-11-21T09:47:15;12.40;99.90
21582;DHT22;10952;50.836;4.348;2023-11-21T09:49:47;12.50;99.90
21582;DHT22;10952;50.836;4.348;2023-11-21T09:52:22;12.60;99.90
21582;DHT22;10952;50.836;4.348;2023-11-21T09:54:50;12.60;99.90
21582;DHT22;10952;50.836;4.348;2023-11-21T09:57:16;12.50;99.90
21582;DHT22;10952;50.836;4.348;2023-11-21T09:59:44;12.50;99.90
21582;DHT22;10952;50.836;4.348;2023-11-21T10:02:11;12.40;99.90
21582;DHT22;10952;50.836;4.348;2023-11-21T10:04:39;12.40;99.90
21582;DHT22;10952;50.836;4.348;2023-11-21T10:07:05;12.50;99.90
21582;DHT22;10952;50.836;4.348;2023-11-21T10:09:36;12.50;99.90
21582;DHT22;10952;50.836;4.348;2023-11-21T10:12:05;12.50;99.90
21582;DHT22;10952;50.836;4.348;2023-11-21T10:14:35;12.60;99.90
21582;DHT22;10952;50.836;4.348;2023-11-21T10:17:02;12.50;99.90
21582;DHT22;10952;50.836;4.348;2023-11-21T10:19:29;12.60;99.90
21582;DHT22;10952;50.836;4.348;2023-11-21T10:21:55;12.60;99.90
21582;DHT22;10952;50.836;4.348;2023-11-21T10:24:25;12.50;99.90
21582;DHT22;10952;50.836;4.348;2023-11-21T10:26:50;12.50;99.90
21582;DHT22;10952;50.836;4.348;2023-11-21T10:29:17;12.50;99.90
21582;DHT22;10952;50.836;4.348;2023-11-21T10:31:44;12.50;99.90
21582;DHT22;10952;50.836;4.348;2023-11-21T10:34:18;12.70;99.90
21582;DHT22;10952;50.836;4.348;2023-11-21T10:36:44;12.80;99.90
21582;DHT22;10952;50.836;4.348;2023-11-21T10:39:20;13.10;99.90
21582;DHT22;10952;50.836;4.348;2023-11-21T10:41:49;13.10;99.90
21582;DHT22;10952;50.836;4.348;2023-11-21T10:44:17;13.20;99.90
21582;DHT22;10952;50.836;4.348;2023-11-21T10:46:49;13.30;99.90
21582;DHT22;10952;50.836;4.348;2023-11-21T10:49:17;13.20;99.90
21582;DHT22;10952;50.836;4.348;2023-11-21T10:51:46;13.20;99.90
21582;DHT22;10952;50.836;4.348;2023-11-21T10:54:18;13.20;99.90
21582;DHT22;10952;50.836;4.348;2023-11-21T10:56:44;13.10;99.90
21582;DHT22;10952;50.836;4.348;2023-11-21T10:59:10;13.00;99.90
21582;DHT22;10952;50.836;4.348;2023-11-21T11:01:42;12.90;99.90
21582;DHT22;10952;50.836;4.348;2023-11-21T11:04:11;12.90;99.90
21582;DHT22;10952;50.836;4.348;2023-11-21T11:06:48;13.20;99.90
21582;DHT22;10952;50.836;4.348;2023-11-21T11:09:17;13.40;99.90
21582;DHT22;10952;50.836;4.348;2023-11-21T11:11:43;13.60;99.90
21582;DHT22;10952;50.836;4.348;2023-11-21T11:14:12;13.80;99.90
21582;DHT22;10952;50.836;4.348;2023-11-21T11:16:41;13.80;99.90
21582;DHT22;10952;50.836;4.348;2023-11-21T11:19:09;13.60;99.90
21582;DHT22;10952;50.836;4.348;2023-11-21T11:21:55;13.50;99.90
21582;DHT22;10952;50.836;4.348;2023-11-21T11:30:11;13.20;99.90
21582;DHT22;10952;50.836;4.348;2023-11-21T11:36:04;13.20;99.90
21582;DHT22;10952;50.836;4.348;2023-11-21T11:38:32;13.30;99.90
21582;DHT22;10952;50.836;4.348;2023-11-21T11:41:02;13.30;99.90
21582;DHT22;10952;50.836;4.348;2023-11-21T11:43:32;13.30;99.90
21582;DHT22;10952;50.836;4.348;2023-11-21T11:46:02;13.20;99.90
21582;DHT22;10952;50.836;4.348;2023-11-21T11:48:29;13.20;99.90
21582;DHT22;10952;50.836;4.348;2023-11-21T11:51:02;13.20;99.90
21582;DHT22;10952;50.836;4.348;2023-11-21T11:53:36;13.10;99.90
21582;DHT22;10952;50.836;4.348;2023-11-21T11:56:26;13.00;99.90
21582;DHT22;10952;50.836;4.348;2023-11-21T11:58:56;13.00;99.90
21582;DHT22;10952;50.836;4.348;2023-11-21T12:01:27;13.00;99.90
21582;DHT22;10952;50.836;4.348;2023-11-21T12:06:41;13.00;99.90
21582;DHT22;10952;50.836;4.348;2023-11-21T12:09:07;13.00;99.90
21582;DHT22;10952;50.836;4.348;2023-11-21T12:11:41;13.00;99.90
21582;DHT22;10952;50.836;4.348;2023-11-21T12:14:06;12.90;99.90
21582;DHT22;10952;50.836;4.348;2023-11-21T12:16:33;12.90;99.90
21582;DHT22;10952;50.836;4.348;2023-11-21T12:18:58;13.00;99.90
21582;DHT22;10952;50.836;4.348;2023-11-21T12:21:24;13.00;99.90
21582;DHT22;10952;50.836;4.348;2023-11-21T12:23:50;12.90;99.90
21582;DHT22;10952;50.836;4.348;2023-11-21T12:26:16;13.00;99.90
21582;DHT22;10952;50.836;4.348;2023-11-21T12:28:42;13.00;99.90
21582;DHT22;10952;50.836;4.348;2023-11-21T12:31:07;13.00;99.90
21582;DHT22;10952;50.836;4.348;2023-11-21T12:33:33;13.10;99.90
21582;DHT22;10952;50.836;4.348;2023-11-21T12:36:00;13.10;99.90
21582;DHT22;10952;50.836;4.348;2023-11-21T12:38:34;13.20;99.90
21582;DHT22;10952;50.836;4.348;2023-11-21T12:41:00;13.20;99.90
21582;DHT22;10952;50.836;4.348;2023-11-21T12:43:26;13.20;99.90
21582;DHT22;10952;50.836;4.348;2023-11-21T12:46:05;13.40;99.90
21582;DHT22;10952;50.836;4.348;2023-11-21T12:48:32;13.50;99.90
21582;DHT22;10952;50.836;4.348;2023-11-21T12:50:57;13.30;99.90
21582;DHT22;10952;50.836;4.348;2023-11-21T12:53:26;13.20;99.90
21582;DHT22;10952;50.836;4.348;2023-11-21T12:55:56;13.10;99.90
21582;DHT22;10952;50.836;4.348;2023-11-21T12:58:24;13.00;99.90
21582;DHT22;10952;50.836;4.348;2023-11-21T13:00:50;13.10;99.90
21582;DHT22;10952;50.836;4.348;2023-11-21T13:03:19;13.20;99.90
21582;DHT22;10952;50.836;4.348;2023-11-21T13:05:51;13.30;99.90
21582;DHT22;10952;50.836;4.348;2023-11-21T13:08:20;13.20;99.90
21582;DHT22;10952;50.836;4.348;2023-11-21T13:10:53;13.10;99.90
21582;DHT22;10952;50.836;4.348;2023-11-21T13:13:21;13.10;99.90
21582;DHT22;10952;50.836;4.348;2023-11-21T13:16:02;13.10;99.90
21582;DHT22;10952;50.836;4.348;2023-11-21T13:18:31;13.10;99.90
21582;DHT22;10952;50.836;4.348;2023-11-21T13:20:59;13.20;99.90
21582;DHT22;10952;50.836;4.348;2023-11-21T13:23:25;13.30;99.90
21582;DHT22;10952;50.836;4.348;2023-11-21T13:25:52;13.30;99.90
21582;DHT22;10952;50.836;4.348;2023-11-21T13:28:18;13.20;99.90
21582;DHT22;10952;50.836;4.348;2023-11-21T13:30:47;13.20;99.90
21582;DHT22;10952;50.836;4.348;2023-11-21T13:33:14;13.20;99.90
21582;DHT22;10952;50.836;4.348;2023-11-21T13:35:47;13.20;99.90
21582;DHT22;10952;50.836;4.348;2023-11-21T13:38:15;13.30;99.90
21582;DHT22;10952;50.836;4.348;2023-11-21T13:40:52;13.30;99.90
21582;DHT22;10952;50.836;4.348;2023-11-21T13:43:23;13.20;99.90
21582;DHT22;10952;50.836;4.348;2023-11-21T13:45:51;13.30;99.90
21582;DHT22;10952;50.836;4.348;2023-11-21T13:48:25;13.30;99.90
21582;DHT22;10952;50.836;4.348;2023-11-21T13:50:57;13.30;99.90
21582;DHT22;10952;50.836;4.348;2023-11-21T13:53:36;13.30;99.90
21582;DHT22;10952;50.836;4.348;2023-11-21T13:56:03;13.30;99.90
21582;DHT22;10952;50.836;4.348;2023-11-21T13:58:29;13.30;99.90
21582;DHT22;10952;50.836;4.348;2023-11-21T14:01:14;13.10;99.90
21582;DHT22;10952;50.836;4.348;2023-11-21T14:04:03;13.00;99.90
21582;DHT22;10952;50.836;4.348;2023-11-21T14:06:42;12.90;99.90
21582;DHT22;10952;50.836;4.348;2023-11-21T14:09:17;12.80;99.90
21582;DHT22;10952;50.836;4.348;2023-11-21T14:11:55;12.80;99.90
21582;DHT22;10952;50.836;4.348;2023-11-21T14:14:24;12.80;99.90
21582;DHT22;10952;50.836;4.348;2023-11-21T14:16:51;12.70;99.90
21582;DHT22;10952;50.836;4.348;2023-11-21T14:19:17;12.70;99.90
21582;DHT22;10952;50.836;4.348;2023-11-21T14:21:46;12.60;99.90
21582;DHT22;10952;50.836;4.348;2023-11-21T14:24:12;12.70;99.90
21582;DHT22;10952;50.836;4.348;2023-11-21T14:26:45;12.70;99.90
21582;DHT22;10952;50.836;4.348;2023-11-21T14:29:14;12.70;99.90
21582;DHT22;10952;50.836;4.348;2023-11-21T14:31:43;12.70;99.90
21582;DHT22;10952;50.836;4.348;2023-11-21T14:34:09;12.80;99.90
21582;DHT22;10952;50.836;4.348;2023-11-21T14:36:35;12.60;99.90
21582;DHT22;10952;50.836;4.348;2023-11-21T14:39:03;12.70;99.90
21582;DHT22;10952;50.836;4.348;2023-11-21T14:41:32;12.60;99.90
21582;DHT22;10952;50.836;4.348;2023-11-21T14:44:00;12.60;99.90
21582;DHT22;10952;50.836;4.348;2023-11-21T14:46:28;12.60;99.90
21582;DHT22;10952;50.836;4.348;2023-11-21T14:48:53;12.60;99.90
21582;DHT22;10952;50.836;4.348;2023-11-21T14:51:32;12.70;99.90
21582;DHT22;10952;50.836;4.348;2023-11-21T14:54:18;12.70;99.90
21582;DHT22;10952;50.836;4.348;2023-11-21T14:56:53;12.60;99.90
21582;DHT22;10952;50.836;4.348;2023-11-21T14:59:18;12.60;99.90
21582;DHT22;10952;50.836;4.348;2023-11-21T15:01:44;12.60;99.90
21582;DHT22;10952;50.836;4.348;2023-11-21T15:04:11;12.70;99.90
21582;DHT22;10952;50.836;4.348;2023-11-21T15:06:50;12.60;99.90
21582;DHT22;10952;50.836;4.348;2023-11-21T15:09:18;12.60;99.90
21582;DHT22;10952;50.836;4.348;2023-11-21T15:11:44;12.50;99.90
21582;DHT22;10952;50.836;4.348;2023-11-21T15:14:10;12.70;99.90
21582;DHT22;10952;50.836;4.348;2023-11-21T15:16:38;12.60;99.90
21582;DHT22;10952;50.836;4.348;2023-11-21T15:19:07;12.60;99.90
21582;DHT22;10952;50.836;4.348;2023-11-21T15:21:38;12.60;99.90
21582;DHT22;10952;50.836;4.348;2023-11-21T15:24:04;12.50;99.90
21582;DHT22;10952;50.836;4.348;2023-11-21T15:26:29;12.50;99.90
21582;DHT22;10952;50.836;4.348;2023-11-21T15:28:55;12.40;99.90
21582;DHT22;10952;50.836;4.348;2023-11-21T15:31:21;12.50;99.90
21582;DHT22;10952;50.836;4.348;2023-11-21T15:33:51;12.40;99.90
21582;DHT22;10952;50.836;4.348;2023-11-21T15:36:17;12.50;99.90
21582;DHT22;10952;50.836;4.348;2023-11-21T15:38:44;12.50;99.90
21582;DHT22;10952;50.836;4.348;2023-11-21T15:41:10;12.50;99.90
21582;DHT22;10952;50.836;4.348;2023-11-21T15:43:37;12.40;99.90
21582;DHT22;10952;50.836;4.348;2023-11-21T15:46:02;12.40;99.90